Govert, South Dakota
Current Conditions -  °F | °C
As of 5:53 AM on Sunday 23 Nov 2014 (Local Time) from KHEI Reporting Station
Overcast Overcast  
Wind Chill: 24°   Ceiling: 3900
Heat Index: 36°   Visibility: 10mi
Dew Point: 27°   Wind: 23mph
Humidity: 70%   Direction: 280°W
Pressure: 29.54"   Gusts: 39mph
Location:  45.5161°N, 102.519°W
Report Text: KHEI 231253Z AUTO 28020G34KT 10SM OVC039 02/M03 A2954 RMK AO2 PK WND 27036/1210 SLP021 T00221028
Loading
Personal Weather Stations






























Interactive Weather Map New forecast layout! Learn more

10-Day Weather Forecast

Advertisements
Track Severe Weather on mobile